Clearfield, PA (16830)

10:19 AM EDT on August 30, 2015 (GMT -0400)
Clearfield-Lawrence | | Change Station
CLOSE
Current Station
Airport
Location: Clearfield,
Elevation: 1516 ft
Nearby Weather Stations

Elev 1516 ft 41.05 °N, 78.41 °W | Updated 25 minutes ago

Partly Cloudy
Partly Cloudy
68 °F
Feels Like 68 °F
N
0
Wind Variable Wind from North

Today
High -- | Low -- °F
--% Chance of Precip.
Yesterday
High -- | Low -- °F
Precip. -- in
6:38 AM 7:49 PM
Full, 99% visible
Pressure 30.14 in
Visibility 10.0 miles
Clouds Few 11000 ft
Dew Point 61 °F
Humidity 78%
Rainfall 0.00 in
Snow Depth Not available.
UV 4 out of 12
Pollen 9.70 out of 12
Air Quality Not available.
Flu Activity Not available.
METAR KFIG 301354Z AUTO 00000KT 10SM FEW110 20/16 A3016 RMK AO2 RAB1255E07 SLP207 P0000 T02000161 $
Pressure 30.14 in
Visibility 10.0 miles
Clouds Few 11000 ft
Dew Point 61 °F
Humidity 78%
Rainfall 0.00 in
Snow Depth Not available.
UV 4 out of 12
Pollen 9.70 out of 12
Air Quality Not available.
Flu Activity Not available.
METAR KFIG 301354Z AUTO 00000KT 10SM FEW110 20/16 A3016 RMK AO2 RAB1255E07 SLP207 P0000 T02000161 $

10-Day Weather Forecast

×

Almanac

Astronomy

Aug. 30, 2015 Rise Set
Actual Time
Civil Twilight
Nautical Twilight
Astronomical Twilight
Moon
Length of Visible Light
Length of Day
Tomorrow will be .
, % of the Moon is Illuminated

Today's Extremes

State Highs State Lows

Community

WunderPhotos

Upload Photos

1,850,968 photos uploaded!

WunderBlogs® & News

Nearby

Air Quality

  Air Quality AQ Index Pollutant
Not available.

Snow Depth

Station Depth Elevation

Earthquake Activity

City Distance Mag. Time & Date
Minimum magnitude displayed is 2.5.

Coastal Water Temperatures

Place Temperature

Stations

Nearby Weather Stations

Station Location Temp. Windchill Dew Point Humidity Wind Precip. Elev Updated Type